createdAt,value
2022-08-03T00:01:49.397Z,42.97
2022-08-03T00:04:16.101Z,42.44
2022-08-03T00:06:42.832Z,42.44
2022-08-03T00:09:09.516Z,42.40
2022-08-03T00:11:36.862Z,42.42
2022-08-03T00:14:05.253Z,42.54
2022-08-03T00:16:31.954Z,42.63
2022-08-03T00:18:58.637Z,43.04
2022-08-03T00:21:27.832Z,43.15
2022-08-03T00:23:54.440Z,43.52
2022-08-03T00:26:21.562Z,44.13
2022-08-03T00:28:48.795Z,44.32
2022-08-03T00:31:15.453Z,44.52
2022-08-03T00:33:59.007Z,44.36
2022-08-03T00:36:26.470Z,44.16
2022-08-03T00:38:53.147Z,44.45
2022-08-03T00:41:19.801Z,44.86
2022-08-03T00:43:47.646Z,45.08
2022-08-03T00:46:19.029Z,45.21
2022-08-03T00:48:48.535Z,45.78
2022-08-03T00:51:15.372Z,44.96
2022-08-03T00:53:42.050Z,44.95
2022-08-03T00:56:08.758Z,45.54
2022-08-03T00:58:35.431Z,45.52
2022-08-03T01:01:02.097Z,46.06
2022-08-03T01:03:28.777Z,45.66
2022-08-03T01:05:55.351Z,45.69
2022-08-03T01:08:28.590Z,45.58
2022-08-03T01:11:12.301Z,45.42
2022-08-03T01:14:02.399Z,45.30
2022-08-03T01:16:44.613Z,45.83
2022-08-03T01:19:29.355Z,45.32
2022-08-03T01:22:07.197Z,45.36
2022-08-03T01:24:52.615Z,45.59
2022-08-03T01:27:21.417Z,45.08
2022-08-03T01:29:56.955Z,45.56
2022-08-03T01:32:59.812Z,45.27
2022-08-03T01:35:15.922Z,45.55
2022-08-03T01:38:00.991Z,45.62
2022-08-03T01:40:28.750Z,45.49
2022-08-03T01:42:57.698Z,45.81
2022-08-03T01:45:25.168Z,45.51
2022-08-03T01:47:52.329Z,46.42
2022-08-03T01:50:23.955Z,46.74
2022-08-03T01:52:50.852Z,46.68
2022-08-03T01:55:19.359Z,47.09
2022-08-03T01:58:05.892Z,47.47
2022-08-03T02:00:35.463Z,46.80
2022-08-03T02:03:02.988Z,46.95
2022-08-03T02:05:31.078Z,46.94
2022-08-03T02:07:58.779Z,46.94
2022-08-03T02:10:34.962Z,47.64
2022-08-03T02:13:03.405Z,47.50
2022-08-03T02:15:30.681Z,48.84
2022-08-03T02:17:57.853Z,48.83
2022-08-03T02:20:25.379Z,49.06
2022-08-03T02:22:52.108Z,48.65
2022-08-03T02:25:18.861Z,49.98
2022-08-03T02:28:04.405Z,49.32
2022-08-03T02:30:39.444Z,49.47
2022-08-03T02:33:08.266Z,49.13
2022-08-03T02:35:36.445Z,49.69
2022-08-03T02:38:04.551Z,49.27
2022-08-03T02:40:32.392Z,49.30
2022-08-03T02:43:08.096Z,49.65
2022-08-03T02:45:36.688Z,49.17
2022-08-03T02:48:04.742Z,50.34
2022-08-03T02:50:33.799Z,49.84
2022-08-03T02:53:01.821Z,49.00
2022-08-03T02:55:29.276Z,49.65
2022-08-03T02:57:57.213Z,49.46
2022-08-03T03:00:28.705Z,49.12
2022-08-03T03:03:00.522Z,49.85
2022-08-03T03:05:53.655Z,50.18
2022-08-03T03:08:20.793Z,49.91
2022-08-03T03:10:55.807Z,50.41
2022-08-03T03:13:22.859Z,50.55
2022-08-03T03:15:50.005Z,51.71
2022-08-03T03:18:22.096Z,51.39
2022-08-03T03:20:50.568Z,51.54
2022-08-03T03:23:17.648Z,51.32
2022-08-03T03:25:45.129Z,51.66
2022-08-03T03:28:11.990Z,51.48
2022-08-03T03:30:38.817Z,51.24
2022-08-03T03:33:05.585Z,51.00
2022-08-03T03:35:38.917Z,50.93
2022-08-03T03:38:06.777Z,50.60
2022-08-03T03:40:35.050Z,50.54
2022-08-03T03:43:01.797Z,50.30
2022-08-03T03:45:29.307Z,50.03
2022-08-03T03:47:56.022Z,50.07
2022-08-03T03:50:22.990Z,50.03
2022-08-03T03:52:49.654Z,49.79
2022-08-03T03:55:17.528Z,50.17
2022-08-03T03:57:44.282Z,50.64
2022-08-03T04:00:12.446Z,50.27
2022-08-03T04:02:39.376Z,50.32
2022-08-03T04:05:25.104Z,50.28
2022-08-03T04:08:24.750Z,50.73
2022-08-03T04:11:06.368Z,50.60
2022-08-03T04:13:41.038Z,50.92
2022-08-03T04:16:09.039Z,50.90
2022-08-03T04:18:37.715Z,50.27
2022-08-03T04:21:06.179Z,50.12
2022-08-03T04:23:35.005Z,49.91
2022-08-03T04:26:02.989Z,49.43
2022-08-03T04:28:32.025Z,49.81
2022-08-03T04:31:03.709Z,49.65
2022-08-03T04:33:32.380Z,49.75
2022-08-03T04:36:01.462Z,49.65
2022-08-03T04:38:30.326Z,49.69
2022-08-03T04:40:57.196Z,49.64
2022-08-03T04:43:24.789Z,49.73
2022-08-03T04:45:51.733Z,49.86
2022-08-03T04:48:20.249Z,50.28
2022-08-03T04:50:47.066Z,50.30
2022-08-03T04:53:13.805Z,49.77
2022-08-03T04:55:40.791Z,50.16
2022-08-03T04:58:07.486Z,50.03
2022-08-03T05:00:34.152Z,49.65
2022-08-03T05:03:00.881Z,49.96
2022-08-03T05:05:47.434Z,49.40
2022-08-03T05:08:14.432Z,49.36
2022-08-03T05:10:41.055Z,49.30
2022-08-03T05:13:12.189Z,49.45
2022-08-03T05:15:43.263Z,49.11
2022-08-03T05:18:13.952Z,49.01
2022-08-03T05:20:40.963Z,46.00
2022-08-03T05:23:07.654Z,46.57
2022-08-03T05:25:34.344Z,45.71
2022-08-03T05:28:01.606Z,45.24
2022-08-03T05:30:33.471Z,43.04
2022-08-03T05:33:01.173Z,42.83
2022-08-03T05:36:01.593Z,42.75
2022-08-03T05:38:24.061Z,42.62
2022-08-03T05:40:56.991Z,43.23
2022-08-03T05:43:24.587Z,43.53
2022-08-03T05:46:11.750Z,42.92
2022-08-03T05:48:37.925Z,41.55
2022-08-03T05:51:06.818Z,42.26
2022-08-03T05:53:34.166Z,41.42
2022-08-03T05:56:13.130Z,41.94
2022-08-03T05:58:40.194Z,40.88
2022-08-03T06:01:06.884Z,41.43
2022-08-03T06:03:33.581Z,41.80
2022-08-03T06:06:00.742Z,42.47
2022-08-03T06:08:27.558Z,43.89
2022-08-03T06:10:54.172Z,44.66
2022-08-03T06:13:20.805Z,44.64
2022-08-03T06:15:47.537Z,44.59
2022-08-03T06:18:14.185Z,44.59
2022-08-03T06:20:40.882Z,44.15
2022-08-03T06:23:08.207Z,43.76
2022-08-03T06:25:43.345Z,42.83
2022-08-03T06:28:19.103Z,42.53
2022-08-03T06:30:55.795Z,42.30
2022-08-03T06:33:26.429Z,42.19
2022-08-03T06:36:13.075Z,41.78
2022-08-03T06:38:39.719Z,42.26
2022-08-03T06:41:06.397Z,42.53
2022-08-03T06:43:36.031Z,41.32
2022-08-03T06:46:02.712Z,40.70
2022-08-03T06:48:29.404Z,41.53
2022-08-03T06:50:56.028Z,42.02
2022-08-03T06:53:22.876Z,41.75
2022-08-03T06:55:54.170Z,42.50
2022-08-03T06:58:21.229Z,43.03
2022-08-03T07:00:48.225Z,42.85
2022-08-03T07:03:15.287Z,42.93
2022-08-03T07:05:42.495Z,42.83
2022-08-03T07:08:09.319Z,43.33
2022-08-03T07:10:36.416Z,42.88
2022-08-03T07:13:03.431Z,42.98
2022-08-03T07:15:54.343Z,42.80
2022-08-03T07:18:17.801Z,43.22
2022-08-03T07:20:55.722Z,43.36
2022-08-03T07:23:22.565Z,43.29
2022-08-03T07:25:49.285Z,43.42
2022-08-03T07:28:15.962Z,42.93
2022-08-03T07:30:42.600Z,42.37
2022-08-03T07:33:09.220Z,42.52
2022-08-03T07:35:35.897Z,42.65
2022-08-03T07:38:02.524Z,42.30
2022-08-03T07:40:31.658Z,41.97
2022-08-03T07:42:59.154Z,42.00
2022-08-03T07:45:26.922Z,41.75
2022-08-03T07:47:54.205Z,42.04
2022-08-03T07:50:21.420Z,41.68
2022-08-03T07:52:48.246Z,40.25
2022-08-03T07:55:15.455Z,40.62
2022-08-03T07:57:42.151Z,37.92
2022-08-03T08:00:14.156Z,40.56
2022-08-03T08:02:41.225Z,40.84
2022-08-03T08:05:08.089Z,39.37
2022-08-03T08:07:34.756Z,41.25
2022-08-03T08:10:01.380Z,40.75
2022-08-03T08:12:28.057Z,38.42
2022-08-03T08:14:54.756Z,40.84
2022-08-03T08:17:21.544Z,40.39
2022-08-03T08:19:51.365Z,39.96
2022-08-03T08:22:19.737Z,41.56
2022-08-03T08:24:56.456Z,41.28
2022-08-03T08:27:23.778Z,41.10
2022-08-03T08:29:55.364Z,40.89
2022-08-03T08:32:24.226Z,41.41
2022-08-03T08:34:51.186Z,42.18
2022-08-03T08:37:17.858Z,41.36
2022-08-03T08:39:44.489Z,41.45
2022-08-03T08:42:11.251Z,40.82
2022-08-03T08:44:37.995Z,39.28
2022-08-03T08:47:05.060Z,39.30
2022-08-03T08:49:33.008Z,40.83
2022-08-03T08:52:01.227Z,40.83
2022-08-03T08:54:29.890Z,41.62
2022-08-03T08:56:57.634Z,42.51
2022-08-03T08:59:25.155Z,42.15
2022-08-03T09:01:55.972Z,42.05
2022-08-03T09:04:22.783Z,41.93
2022-08-03T09:07:10.619Z,43.75
2022-08-03T09:10:10.483Z,44.06
2022-08-03T09:12:40.944Z,45.08
2022-08-03T09:15:17.640Z,45.49
2022-08-03T09:17:47.664Z,45.86
2022-08-03T09:20:17.425Z,47.52
2022-08-03T09:23:14.013Z,47.82
2022-08-03T09:25:57.639Z,48.16
2022-08-03T09:28:59.988Z,48.54
2022-08-03T09:31:20.961Z,50.53
2022-08-03T09:33:48.886Z,49.37
2022-08-03T09:36:34.537Z,49.17
2022-08-03T09:39:03.418Z,50.21
2022-08-03T09:41:30.065Z,50.65
2022-08-03T09:43:57.420Z,50.88
2022-08-03T09:46:24.120Z,51.32
2022-08-03T09:48:50.883Z,51.34
2022-08-03T09:52:06.392Z,52.51
2022-08-03T09:54:15.059Z,50.87
2022-08-03T09:56:46.137Z,51.91
2022-08-03T09:59:13.465Z,51.39
2022-08-03T10:01:43.381Z,50.79
2022-08-03T10:04:15.137Z,52.20
2022-08-03T10:06:42.275Z,52.00
2022-08-03T10:09:10.520Z,52.35
2022-08-03T10:11:41.691Z,52.32
2022-08-03T10:14:10.239Z,52.00
2022-08-03T10:16:37.992Z,50.90
2022-08-03T10:19:07.797Z,51.86
2022-08-03T10:21:35.614Z,51.79
2022-08-03T10:24:06.409Z,51.76
2022-08-03T10:26:34.588Z,51.15
2022-08-03T10:29:03.696Z,51.22
2022-08-03T10:31:40.638Z,51.79
2022-08-03T10:34:25.884Z,51.93
2022-08-03T10:36:54.878Z,49.21
2022-08-03T10:39:22.578Z,50.54
2022-08-03T10:41:50.820Z,51.19
2022-08-03T10:44:20.958Z,50.83
2022-08-03T10:46:48.947Z,48.99
2022-08-03T10:49:16.827Z,49.91
2022-08-03T10:52:00.365Z,49.28
2022-08-03T10:55:03.326Z,50.21
2022-08-03T10:57:44.294Z,48.02
2022-08-03T11:00:14.315Z,48.94
2022-08-03T11:03:00.078Z,48.12
2022-08-03T11:05:28.500Z,48.46
2022-08-03T11:08:13.624Z,48.19
2022-08-03T11:10:40.784Z,47.12
2022-08-03T11:13:08.086Z,48.24
2022-08-03T11:15:35.999Z,48.69
2022-08-03T11:18:11.270Z,48.06
2022-08-03T11:20:54.797Z,48.69
2022-08-03T11:24:04.567Z,47.17
2022-08-03T11:26:28.175Z,46.17
2022-08-03T11:29:14.716Z,46.81
2022-08-03T11:31:50.693Z,43.60
2022-08-03T11:34:18.129Z,45.12
2022-08-03T11:37:03.296Z,44.36
2022-08-03T11:39:45.258Z,44.27
2022-08-03T11:42:24.299Z,45.23
2022-08-03T11:44:55.025Z,43.76
2022-08-03T11:47:22.977Z,45.60
2022-08-03T11:49:51.145Z,45.10
2022-08-03T11:52:18.569Z,43.89
2022-08-03T11:54:45.608Z,45.17
2022-08-03T11:57:12.554Z,46.45
2022-08-03T11:59:39.236Z,47.16
2022-08-03T12:02:09.630Z,46.73
2022-08-03T12:04:54.650Z,47.72
2022-08-03T12:08:02.198Z,46.69
2022-08-03T12:10:11.555Z,46.62
2022-08-03T12:12:41.238Z,46.63
2022-08-03T12:15:11.292Z,47.22
2022-08-03T12:17:39.304Z,47.11
2022-08-03T12:20:07.161Z,47.19
2022-08-03T12:22:34.477Z,44.36
2022-08-03T12:25:01.367Z,42.70
2022-08-03T12:27:31.012Z,43.10
2022-08-03T12:29:59.287Z,43.24
2022-08-03T12:32:27.112Z,44.71
2022-08-03T12:34:54.427Z,45.40
2022-08-03T12:37:24.011Z,42.45
2022-08-03T12:40:00.545Z,42.29
2022-08-03T12:42:31.534Z,42.99
2022-08-03T12:44:58.254Z,41.81
2022-08-03T12:47:24.952Z,43.17
2022-08-03T12:49:52.973Z,41.76
2022-08-03T12:52:21.004Z,42.48
2022-08-03T12:54:57.451Z,42.73
2022-08-03T12:57:24.596Z,42.69
2022-08-03T12:59:53.083Z,42.83
2022-08-03T13:02:24.950Z,41.71
2022-08-03T13:04:52.756Z,42.77
2022-08-03T13:07:20.222Z,43.18
2022-08-03T13:09:55.837Z,42.99
2022-08-03T13:12:23.620Z,42.91
2022-08-03T13:14:55.171Z,40.56
2022-08-03T13:17:22.444Z,41.25
2022-08-03T13:19:50.172Z,40.78
2022-08-03T13:22:21.562Z,40.27
2022-08-03T13:24:49.464Z,41.77
2022-08-03T13:28:03.951Z,42.47
2022-08-03T13:30:04.141Z,41.00
2022-08-03T13:32:31.011Z,43.13
2022-08-03T13:34:57.790Z,41.51
2022-08-03T13:37:24.765Z,41.07
2022-08-03T13:39:58.877Z,40.92
2022-08-03T13:42:28.196Z,40.44
2022-08-03T13:44:54.965Z,40.41
2022-08-03T13:47:22.026Z,40.28
2022-08-03T13:50:00.156Z,40.98
2022-08-03T13:52:32.852Z,36.31
2022-08-03T13:55:00.452Z,38.04
2022-08-03T13:58:03.293Z,38.13
2022-08-03T14:00:26.306Z,35.74
2022-08-03T14:03:02.903Z,38.70
2022-08-03T14:05:32.523Z,36.23
2022-08-03T14:08:04.024Z,38.01
2022-08-03T14:10:32.644Z,37.49
2022-08-03T14:13:00.691Z,39.71
2022-08-03T14:15:28.880Z,37.12
2022-08-03T14:17:56.221Z,37.71
2022-08-03T14:20:38.868Z,38.46
2022-08-03T14:23:13.108Z,39.07
2022-08-03T14:25:51.756Z,37.67
2022-08-03T14:28:20.222Z,36.47
2022-08-03T14:30:48.084Z,37.36
2022-08-03T14:33:14.859Z,37.65
2022-08-03T14:35:41.562Z,36.06
2022-08-03T14:38:08.445Z,37.55
2022-08-03T14:40:35.386Z,38.36
2022-08-03T14:43:02.705Z,37.93
2022-08-03T14:45:29.444Z,38.12
2022-08-03T14:50:34.123Z,37.51
2022-08-03T14:50:51.024Z,36.45
2022-08-03T14:53:18.305Z,38.53
2022-08-03T14:55:50.495Z,38.18
2022-08-03T14:58:20.036Z,36.77
2022-08-03T15:00:48.596Z,35.27
2022-08-03T15:03:16.948Z,36.12
2022-08-03T15:05:44.836Z,35.43
2022-08-03T15:08:11.520Z,35.21
2022-08-03T15:10:40.552Z,35.48
2022-08-03T15:13:11.482Z,37.76
2022-08-03T15:15:38.266Z,36.86
2022-08-03T15:18:05.067Z,36.87
2022-08-03T15:20:43.325Z,37.01
2022-08-03T15:23:11.831Z,36.97
2022-08-03T15:26:02.234Z,37.32
2022-08-03T15:28:25.293Z,36.96
2022-08-03T15:30:52.536Z,36.21
2022-08-03T15:33:19.411Z,34.94
2022-08-03T15:35:47.765Z,33.88
2022-08-03T15:38:14.616Z,34.57
2022-08-03T15:40:41.566Z,36.03
2022-08-03T15:43:08.479Z,36.14
2022-08-03T15:45:36.528Z,37.61
2022-08-03T15:48:04.276Z,36.59
2022-08-03T15:50:30.942Z,36.88
2022-08-03T15:52:57.621Z,36.19
2022-08-03T15:55:24.355Z,37.41
2022-08-03T15:59:03.156Z,37.70
2022-08-03T16:00:37.815Z,39.04
2022-08-03T16:03:05.049Z,38.08
2022-08-03T16:05:32.210Z,38.03
2022-08-03T16:08:03.544Z,36.26
2022-08-03T16:10:31.102Z,38.24
2022-08-03T16:12:59.092Z,38.22
2022-08-03T16:15:26.018Z,39.89
2022-08-03T16:17:52.723Z,40.08
2022-08-03T16:20:34.484Z,39.09
2022-08-03T16:23:11.604Z,39.80
2022-08-03T16:25:40.379Z,40.18
2022-08-03T16:28:13.091Z,40.38
2022-08-03T16:30:41.582Z,40.04
2022-08-03T16:33:08.475Z,39.90
2022-08-03T16:35:35.171Z,39.91
2022-08-03T16:38:04.451Z,40.74
2022-08-03T16:40:33.844Z,42.22
2022-08-03T16:43:00.568Z,42.36
2022-08-03T16:45:27.279Z,41.32
2022-08-03T16:48:05.372Z,39.82
2022-08-03T16:50:33.283Z,40.06
2022-08-03T16:53:00.000Z,40.23
2022-08-03T16:55:43.345Z,40.46
2022-08-03T16:58:15.286Z,41.58
2022-08-03T17:00:44.047Z,42.06
2022-08-03T17:03:20.494Z,41.05
2022-08-03T17:05:51.081Z,41.47
2022-08-03T17:08:26.664Z,42.19
2022-08-03T17:10:54.645Z,41.60
2022-08-03T17:13:22.854Z,41.97
2022-08-03T17:15:58.229Z,43.36
2022-08-03T17:18:32.518Z,43.07
2022-08-03T17:21:03.475Z,42.40
2022-08-03T17:23:50.130Z,42.36
2022-08-03T17:26:21.955Z,43.26
2022-08-03T17:28:57.391Z,42.93
2022-08-03T17:31:31.568Z,42.40
2022-08-03T17:34:00.315Z,42.30
2022-08-03T17:36:54.070Z,42.17
2022-08-03T17:39:16.934Z,42.92
2022-08-03T17:41:50.082Z,43.12
2022-08-03T17:44:38.750Z,43.12
2022-08-03T17:47:12.671Z,42.59
2022-08-03T17:49:45.832Z,41.76
2022-08-03T17:52:27.774Z,41.89
2022-08-03T17:55:54.917Z,42.19
2022-08-03T17:58:05.160Z,40.19
2022-08-03T18:00:52.297Z,42.40
2022-08-03T18:03:28.051Z,43.25
2022-08-03T18:06:11.246Z,44.05
2022-08-03T18:08:43.919Z,45.63
2022-08-03T18:11:14.886Z,46.04
2022-08-03T18:13:59.673Z,46.64
2022-08-03T18:16:38.815Z,47.89
2022-08-03T18:19:09.675Z,48.01
2022-08-03T18:22:03.303Z,48.97
2022-08-03T18:24:29.298Z,48.69
2022-08-03T18:26:57.386Z,48.65
2022-08-03T18:29:25.603Z,48.49
2022-08-03T18:32:03.088Z,49.28
2022-08-03T18:34:34.098Z,49.04
2022-08-03T18:37:04.416Z,50.38
2022-08-03T18:39:36.043Z,52.16
2022-08-03T18:42:19.657Z,52.03
2022-08-03T18:44:54.193Z,50.60
2022-08-03T18:47:51.821Z,51.46
2022-08-03T18:50:35.672Z,52.07
2022-08-03T18:53:16.187Z,51.68
2022-08-03T18:56:01.924Z,51.52
2022-08-03T18:58:41.214Z,50.99
2022-08-03T19:01:15.273Z,51.10
2022-08-03T19:03:58.032Z,50.67
2022-08-03T19:06:27.556Z,51.85
2022-08-03T19:09:04.507Z,51.31
2022-08-03T19:14:22.587Z,51.12
2022-08-03T19:17:04.982Z,50.57
2022-08-03T19:19:43.389Z,50.08
2022-08-03T19:22:11.743Z,49.70
2022-08-03T19:24:39.989Z,49.74
2022-08-03T19:27:10.735Z,49.76
2022-08-03T19:32:26.921Z,50.83
2022-08-03T19:34:53.754Z,51.04
2022-08-03T19:37:22.646Z,51.36
2022-08-03T19:39:56.639Z,51.98
2022-08-03T19:42:30.864Z,51.73
2022-08-03T19:45:11.087Z,52.40
2022-08-03T19:47:52.322Z,52.35
2022-08-03T19:50:19.770Z,52.77
2022-08-03T19:52:47.907Z,51.36
2022-08-03T19:55:15.367Z,51.85
2022-08-03T19:57:43.558Z,50.99
2022-08-03T20:00:13.970Z,49.63
2022-08-03T20:02:41.390Z,48.56
2022-08-03T20:05:15.063Z,48.03
2022-08-03T20:07:47.514Z,45.86
2022-08-03T20:10:30.489Z,44.41
2022-08-03T20:12:57.658Z,43.18
2022-08-03T20:15:31.724Z,42.45
2022-08-03T20:17:59.181Z,42.28
2022-08-03T20:20:28.475Z,42.14
2022-08-03T20:22:57.489Z,41.52
2022-08-03T20:25:38.953Z,39.13
2022-08-03T20:28:13.955Z,39.70
2022-08-03T20:30:43.225Z,40.56
2022-08-03T20:33:10.105Z,39.50
2022-08-03T20:35:36.766Z,39.81
2022-08-03T20:38:03.731Z,41.15
2022-08-03T20:40:30.397Z,41.24
2022-08-03T20:42:57.093Z,43.36
2022-08-03T20:46:00.946Z,43.16
2022-08-03T20:48:10.619Z,42.33
2022-08-03T20:50:40.322Z,40.63
2022-08-03T20:53:10.180Z,41.80
2022-08-03T20:55:55.683Z,41.71
2022-08-03T20:58:26.611Z,43.58
2022-08-03T21:00:53.645Z,44.11
2022-08-03T21:03:20.288Z,43.70
2022-08-03T21:05:51.648Z,42.45
2022-08-03T21:08:21.670Z,41.78
2022-08-03T21:10:49.398Z,42.63
2022-08-03T21:13:01.459Z,50.70
2022-08-03T21:13:02.299Z,49.69
2022-08-03T21:13:28.266Z,42.83
2022-08-03T21:16:06.836Z,42.06
2022-08-03T21:19:00.226Z,40.48
2022-08-03T21:21:30.952Z,38.95
2022-08-03T21:23:58.539Z,40.77
2022-08-03T21:26:25.974Z,39.71
2022-08-03T21:28:54.519Z,40.69
2022-08-03T21:31:25.289Z,39.76
2022-08-03T21:33:57.164Z,38.77
2022-08-03T21:36:25.867Z,38.38
2022-08-03T21:38:56.262Z,39.76
2022-08-03T21:41:25.032Z,39.22
2022-08-03T21:43:51.753Z,39.82
2022-08-03T21:46:19.163Z,40.23
2022-08-03T21:48:47.563Z,39.38
2022-08-03T21:51:16.692Z,40.73
2022-08-03T21:54:02.839Z,41.14
2022-08-03T21:56:35.034Z,41.97
2022-08-03T21:59:06.914Z,42.28
2022-08-03T22:01:35.585Z,42.06
2022-08-03T22:04:03.698Z,43.36
2022-08-03T22:06:30.353Z,43.46
2022-08-03T22:08:56.992Z,44.12
2022-08-03T22:11:23.702Z,43.75
2022-08-03T22:13:50.409Z,44.47
2022-08-03T22:16:17.342Z,44.02
2022-08-03T22:18:44.969Z,44.38
2022-08-03T22:21:12.760Z,43.68
2022-08-03T22:23:40.883Z,43.00
2022-08-03T22:26:11.309Z,43.95
2022-08-03T22:28:38.069Z,44.04
2022-08-03T22:31:30.780Z,43.80
2022-08-03T22:33:53.556Z,44.35
2022-08-03T22:36:22.239Z,44.79
2022-08-03T22:38:50.866Z,44.36
2022-08-03T22:41:17.728Z,44.23
2022-08-03T22:43:44.445Z,44.35
2022-08-03T22:46:15.594Z,43.96
2022-08-03T22:48:46.967Z,43.80
2022-08-03T22:51:15.502Z,44.12
2022-08-03T22:53:42.315Z,43.96
2022-08-03T22:56:09.150Z,43.54
2022-08-03T22:58:35.805Z,43.29
2022-08-03T23:01:04.614Z,43.29
2022-08-03T23:04:00.508Z,43.48
2022-08-03T23:06:21.777Z,43.09
2022-08-03T23:08:50.384Z,43.17
2022-08-03T23:11:18.356Z,42.87
2022-08-03T23:13:47.089Z,43.01
2022-08-03T23:16:15.812Z,42.93
2022-08-03T23:18:56.240Z,43.59
2022-08-03T23:21:53.416Z,43.43
2022-08-03T23:24:24.607Z,43.25
2022-08-03T23:26:56.992Z,43.17
2022-08-03T23:29:23.875Z,43.60
2022-08-03T23:31:50.921Z,43.49
2022-08-03T23:34:36.724Z,43.43
2022-08-03T23:37:05.606Z,43.52
2022-08-03T23:39:34.881Z,43.13
2022-08-03T23:42:03.158Z,43.27
2022-08-03T23:44:34.787Z,43.32
2022-08-03T23:47:01.484Z,43.43
2022-08-03T23:49:28.136Z,44.36
2022-08-03T23:52:03.686Z,44.97
2022-08-03T23:54:30.364Z,45.19
2022-08-03T23:56:56.978Z,45.46
2022-08-03T23:59:42.404Z,46.52
